TJSJ/SJU METAR and TAF weather

Enter ICAO airport designator
Station Type Date Time Source
TJSJ METAR 2019/02/22 22:56 UTC NOAA

TJSJ 222256Z 07016KT 10SM SCT023 SCT031 26/22 A3013 RMK AO2 SLP202 T02610217


Station Type Date Time Source
TJSJ Decoded METAR 2019/02/22 22:56 UTC NOAA

San Juan, Luis Munoz Marin International Airport, PR, United States (TJSJ) 18-27N 066-00W
Feb 22, 2019 - 05:56 PM EST / 2019.02.22 2256 UTC
Wind: from the ENE (070 degrees) at 18 MPH (16 KT):0
Visibility: 10 mile(s):0
Sky conditions: partly cloudy
Temperature: 79.0 F (26.1 C)
Dew Point: 71.1 F (21.7 C)
Relative Humidity: 76%
Pressure (altimeter): 30.13 in. Hg (1020 hPa)
ob: TJSJ 222256Z 07016KT 10SM SCT023 SCT031 26/22 A3013 RMK AO2 SLP202 T02610217
cycle: 23

Station Type Date Time Source
TJSJ TAF 2019/02/22 18:42 UTC NOAA

TAF TJSJ 221739Z 2218/2318 07015G25KT P6SM VCSH FEW025 SCT050
FM222200 09013KT P6SM FEW030
FM231400 07016G24KT P6SM FEW025 SCT050


Example: see airport list